Berkley, MI

9:09 AM EDT on July 01, 2015 (GMT -0400)
N Crooks / W Maple | | Change Station
CLOSE
Current Station
Personal Weather Station
Location: Clawson, MI
Elevation: 702 ft
Nearby Weather Stations

Elev 702 ft 42.55 °N, 83.16 °W | Updated 23 seconds ago

Mostly Cloudy
Mostly Cloudy
66.0 °F
Feels Like 66.0 °F
N
1.0
Wind Variable Wind from NE
Gusts 4.0 mph

Today
High -- | Low -- °F
--% Chance of Precip.
Yesterday
High -- | Low -- °F
Precip. -- in
5:59 AM 9:13 PM
Full, 100% visible
Pressure 29.88 in
Visibility 10.0 miles
Clouds Scattered Clouds 1200 ft
Scattered Clouds 2300 ft
Mostly Cloudy 6000 ft
Dew Point 61 °F
Humidity 83%
Rainfall 0.00 in
Snow Depth Not available.
UV 2 out of 12
Pollen 2.60 out of 12
Air Quality Not available.
Flu Activity Not available.
METAR KVLL 011254Z AUTO 33003KT 10SM SCT012 SCT023 BKN060 19/16 A2988 RMK AO2 T01850157

More Conditions Fewer Conditions

Pressure 29.88 in
Visibility 10.0 miles
Clouds Scattered Clouds 1200 ft
Scattered Clouds 2300 ft
Mostly Cloudy 6000 ft
Dew Point 61 °F
Humidity 83%
Rainfall 0.00 in
Snow Depth Not available.
UV 2 out of 12
Pollen 2.60 out of 12
Air Quality Not available.
Flu Activity Not available.
METAR KVLL 011254Z AUTO 33003KT 10SM SCT012 SCT023 BKN060 19/16 A2988 RMK AO2 T01850157

More Conditions Fewer Conditions

10-Day Weather Forecast

×

Almanac

Astronomy

Jul. 01, 2015 Rise Set
Actual Time
Civil Twilight
Nautical Twilight
Astronomical Twilight
Moon
Length of Visible Light
Length of Day
Tomorrow will be .
, % of the Moon is Illuminated

Today's Extremes

State Highs State Lows

Community

WunderPhotos

Upload Photos

1,834,187 photos uploaded!

WunderBlogs® & News

Nearby

Air Quality

  Air Quality AQ Index Pollutant
Not available.

Snow Depth

Station Depth Elevation

Earthquake Activity

City Distance Mag. Time & Date
Minimum magnitude displayed is 2.5.

Coastal Water Temperatures

Place Temperature

Stations

Nearby Weather Stations

Station Location Temp. Windchill Dew Point Humidity Wind Precip. Elev Updated Type